sensor_id;sensor_type;location;lat;lon;timestamp;temperature;humidity
17845;DHT22;9047;53.486;10.218;2022-12-07T00:00:21;3.20;99.90
17845;DHT22;9047;53.486;10.218;2022-12-07T00:02:47;3.30;99.90
17845;DHT22;9047;53.486;10.218;2022-12-07T00:05:15;3.30;99.90
17845;DHT22;9047;53.486;10.218;2022-12-07T00:07:42;3.30;99.90
17845;DHT22;9047;53.486;10.218;2022-12-07T00:10:09;3.30;99.90
17845;DHT22;9047;53.486;10.218;2022-12-07T00:12:37;3.40;99.90
17845;DHT22;9047;53.486;10.218;2022-12-07T00:15:07;3.40;99.90
17845;DHT22;9047;53.486;10.218;2022-12-07T00:17:34;3.50;99.90
17845;DHT22;9047;53.486;10.218;2022-12-07T00:20:00;3.50;99.90
17845;DHT22;9047;53.486;10.218;2022-12-07T00:22:28;3.50;99.90
17845;DHT22;9047;53.486;10.218;2022-12-07T00:24:54;3.60;99.90
17845;DHT22;9047;53.486;10.218;2022-12-07T00:27:21;3.60;99.90
17845;DHT22;9047;53.486;10.218;2022-12-07T00:29:49;3.60;99.90
17845;DHT22;9047;53.486;10.218;2022-12-07T00:32:16;3.60;99.90
17845;DHT22;9047;53.486;10.218;2022-12-07T00:34:43;3.60;99.90
17845;DHT22;9047;53.486;10.218;2022-12-07T00:37:12;3.60;99.90
17845;DHT22;9047;53.486;10.218;2022-12-07T00:39:40;3.60;99.90
17845;DHT22;9047;53.486;10.218;2022-12-07T00:42:07;3.60;99.90
17845;DHT22;9047;53.486;10.218;2022-12-07T00:44:34;3.70;99.90
17845;DHT22;9047;53.486;10.218;2022-12-07T00:47:01;3.70;99.90
17845;DHT22;9047;53.486;10.218;2022-12-07T00:49:28;3.70;99.90
17845;DHT22;9047;53.486;10.218;2022-12-07T00:51:55;3.70;99.90
17845;DHT22;9047;53.486;10.218;2022-12-07T00:54:22;3.70;99.90
17845;DHT22;9047;53.486;10.218;2022-12-07T00:56:48;3.80;99.90
17845;DHT22;9047;53.486;10.218;2022-12-07T00:59:15;3.70;99.90
17845;DHT22;9047;53.486;10.218;2022-12-07T01:01:42;3.60;99.90
17845;DHT22;9047;53.486;10.218;2022-12-07T01:04:10;3.80;99.90
17845;DHT22;9047;53.486;10.218;2022-12-07T01:06:38;3.80;99.90
17845;DHT22;9047;53.486;10.218;2022-12-07T01:09:05;3.80;99.90
17845;DHT22;9047;53.486;10.218;2022-12-07T01:11:32;3.80;99.90
17845;DHT22;9047;53.486;10.218;2022-12-07T01:14:00;3.80;99.90
17845;DHT22;9047;53.486;10.218;2022-12-07T01:16:30;3.70;99.90
17845;DHT22;9047;53.486;10.218;2022-12-07T01:18:58;3.80;99.90
17845;DHT22;9047;53.486;10.218;2022-12-07T01:21:28;3.80;99.90
17845;DHT22;9047;53.486;10.218;2022-12-07T01:23:57;3.80;99.90
17845;DHT22;9047;53.486;10.218;2022-12-07T01:26:24;3.90;99.90
17845;DHT22;9047;53.486;10.218;2022-12-07T01:28:51;3.90;99.90
17845;DHT22;9047;53.486;10.218;2022-12-07T01:31:23;3.90;99.90
17845;DHT22;9047;53.486;10.218;2022-12-07T01:33:52;3.90;99.90
17845;DHT22;9047;53.486;10.218;2022-12-07T01:36:20;3.90;99.90
17845;DHT22;9047;53.486;10.218;2022-12-07T01:38:53;3.90;99.90
17845;DHT22;9047;53.486;10.218;2022-12-07T01:41:23;3.90;99.90
17845;DHT22;9047;53.486;10.218;2022-12-07T01:44:24;3.90;99.90
17845;DHT22;9047;53.486;10.218;2022-12-07T01:46:52;3.90;99.90
17845;DHT22;9047;53.486;10.218;2022-12-07T01:49:26;3.90;99.90
17845;DHT22;9047;53.486;10.218;2022-12-07T01:51:58;3.90;99.90
17845;DHT22;9047;53.486;10.218;2022-12-07T01:54:28;4.00;99.90
17845;DHT22;9047;53.486;10.218;2022-12-07T01:56:57;3.90;99.90
17845;DHT22;9047;53.486;10.218;2022-12-07T01:59:25;4.00;99.90
17845;DHT22;9047;53.486;10.218;2022-12-07T02:01:53;4.00;99.90
17845;DHT22;9047;53.486;10.218;2022-12-07T02:04:22;4.00;99.90
17845;DHT22;9047;53.486;10.218;2022-12-07T02:06:50;4.00;99.90
17845;DHT22;9047;53.486;10.218;2022-12-07T02:09:17;4.10;99.90
17845;DHT22;9047;53.486;10.218;2022-12-07T02:11:45;4.10;99.90
17845;DHT22;9047;53.486;10.218;2022-12-07T02:14:12;4.10;99.90
17845;DHT22;9047;53.486;10.218;2022-12-07T02:16:48;4.10;99.90
17845;DHT22;9047;53.486;10.218;2022-12-07T02:25:55;4.30;99.90
17845;DHT22;9047;53.486;10.218;2022-12-07T02:28:32;4.30;99.90
17845;DHT22;9047;53.486;10.218;2022-12-07T02:31:06;4.30;99.90
17845;DHT22;9047;53.486;10.218;2022-12-07T02:33:42;4.20;99.90
17845;DHT22;9047;53.486;10.218;2022-12-07T02:36:13;4.20;99.90
17845;DHT22;9047;53.486;10.218;2022-12-07T02:38:47;4.10;99.90
17845;DHT22;9047;53.486;10.218;2022-12-07T02:41:19;4.00;99.90
17845;DHT22;9047;53.486;10.218;2022-12-07T02:43:49;3.90;99.90
17845;DHT22;9047;53.486;10.218;2022-12-07T02:46:22;3.80;99.90
17845;DHT22;9047;53.486;10.218;2022-12-07T02:48:50;3.80;99.90
17845;DHT22;9047;53.486;10.218;2022-12-07T02:51:19;3.80;99.90
17845;DHT22;9047;53.486;10.218;2022-12-07T02:53:46;3.70;99.90
17845;DHT22;9047;53.486;10.218;2022-12-07T02:56:20;3.70;99.90
17845;DHT22;9047;53.486;10.218;2022-12-07T02:58:58;3.50;99.90
17845;DHT22;9047;53.486;10.218;2022-12-07T03:01:34;3.50;99.90
17845;DHT22;9047;53.486;10.218;2022-12-07T03:04:19;3.50;99.90
17845;DHT22;9047;53.486;10.218;2022-12-07T03:06:55;3.50;99.90
17845;DHT22;9047;53.486;10.218;2022-12-07T03:09:27;3.50;99.90
17845;DHT22;9047;53.486;10.218;2022-12-07T03:12:03;3.70;99.90
17845;DHT22;9047;53.486;10.218;2022-12-07T03:14:36;3.70;99.90
17845;DHT22;9047;53.486;10.218;2022-12-07T03:17:10;3.70;99.90
17845;DHT22;9047;53.486;10.218;2022-12-07T03:19:40;3.70;99.90
17845;DHT22;9047;53.486;10.218;2022-12-07T03:22:10;3.70;99.90
17845;DHT22;9047;53.486;10.218;2022-12-07T03:24:41;3.60;99.90
17845;DHT22;9047;53.486;10.218;2022-12-07T03:27:13;3.50;99.90
17845;DHT22;9047;53.486;10.218;2022-12-07T03:29:46;3.50;99.90
17845;DHT22;9047;53.486;10.218;2022-12-07T03:32:20;3.40;99.90
17845;DHT22;9047;53.486;10.218;2022-12-07T03:34:55;3.30;99.90
17845;DHT22;9047;53.486;10.218;2022-12-07T03:37:26;3.20;99.90
17845;DHT22;9047;53.486;10.218;2022-12-07T03:40:01;3.20;99.90
17845;DHT22;9047;53.486;10.218;2022-12-07T03:42:29;3.10;99.90
17845;DHT22;9047;53.486;10.218;2022-12-07T03:44:56;3.10;99.90
17845;DHT22;9047;53.486;10.218;2022-12-07T03:47:28;3.10;99.90
17845;DHT22;9047;53.486;10.218;2022-12-07T03:49:59;3.10;99.90
17845;DHT22;9047;53.486;10.218;2022-12-07T03:52:32;3.10;99.90
17845;DHT22;9047;53.486;10.218;2022-12-07T03:55:03;3.10;99.90
17845;DHT22;9047;53.486;10.218;2022-12-07T03:57:33;3.10;99.90
17845;DHT22;9047;53.486;10.218;2022-12-07T04:00:03;3.10;99.90
17845;DHT22;9047;53.486;10.218;2022-12-07T04:02:34;3.00;99.90
17845;DHT22;9047;53.486;10.218;2022-12-07T04:05:03;3.00;99.90
17845;DHT22;9047;53.486;10.218;2022-12-07T04:07:30;2.90;99.90
17845;DHT22;9047;53.486;10.218;2022-12-07T04:09:56;3.00;99.90
17845;DHT22;9047;53.486;10.218;2022-12-07T04:12:25;3.00;99.90
17845;DHT22;9047;53.486;10.218;2022-12-07T04:14:52;2.90;99.90
17845;DHT22;9047;53.486;10.218;2022-12-07T04:17:24;2.90;99.90
17845;DHT22;9047;53.486;10.218;2022-12-07T04:19:52;2.90;99.90
17845;DHT22;9047;53.486;10.218;2022-12-07T04:22:18;3.00;99.90
17845;DHT22;9047;53.486;10.218;2022-12-07T04:24:45;3.00;99.90
17845;DHT22;9047;53.486;10.218;2022-12-07T04:27:12;3.00;99.90
17845;DHT22;9047;53.486;10.218;2022-12-07T04:29:39;3.00;99.90
17845;DHT22;9047;53.486;10.218;2022-12-07T04:32:06;3.00;99.90
17845;DHT22;9047;53.486;10.218;2022-12-07T04:34:33;3.00;99.90
17845;DHT22;9047;53.486;10.218;2022-12-07T04:37:01;2.90;99.90
17845;DHT22;9047;53.486;10.218;2022-12-07T04:39:30;2.90;99.90
17845;DHT22;9047;53.486;10.218;2022-12-07T04:41:58;2.90;99.90
17845;DHT22;9047;53.486;10.218;2022-12-07T04:44:26;2.90;99.90
17845;DHT22;9047;53.486;10.218;2022-12-07T04:46:54;2.80;99.90
17845;DHT22;9047;53.486;10.218;2022-12-07T04:49:21;2.80;99.90
17845;DHT22;9047;53.486;10.218;2022-12-07T04:51:47;2.70;99.90
17845;DHT22;9047;53.486;10.218;2022-12-07T04:54:28;2.70;99.90
17845;DHT22;9047;53.486;10.218;2022-12-07T04:56:55;2.60;99.90
17845;DHT22;9047;53.486;10.218;2022-12-07T04:59:22;2.60;99.90
17845;DHT22;9047;53.486;10.218;2022-12-07T05:01:49;2.60;99.90
17845;DHT22;9047;53.486;10.218;2022-12-07T05:04:16;2.50;99.90
17845;DHT22;9047;53.486;10.218;2022-12-07T05:06:43;2.50;99.90
17845;DHT22;9047;53.486;10.218;2022-12-07T05:09:10;2.50;99.90
17845;DHT22;9047;53.486;10.218;2022-12-07T05:11:38;2.50;99.90
17845;DHT22;9047;53.486;10.218;2022-12-07T05:14:08;2.40;99.90
17845;DHT22;9047;53.486;10.218;2022-12-07T05:16:36;2.50;99.90
17845;DHT22;9047;53.486;10.218;2022-12-07T05:19:03;2.30;99.90
17845;DHT22;9047;53.486;10.218;2022-12-07T05:21:30;2.30;99.90
17845;DHT22;9047;53.486;10.218;2022-12-07T05:23:57;2.30;99.90
17845;DHT22;9047;53.486;10.218;2022-12-07T05:26:24;2.20;99.90
17845;DHT22;9047;53.486;10.218;2022-12-07T05:28:53;2.20;99.90
17845;DHT22;9047;53.486;10.218;2022-12-07T05:31:21;2.20;99.90
17845;DHT22;9047;53.486;10.218;2022-12-07T05:33:48;2.20;99.90
17845;DHT22;9047;53.486;10.218;2022-12-07T05:36:15;2.20;99.90
17845;DHT22;9047;53.486;10.218;2022-12-07T05:38:42;2.20;99.90
17845;DHT22;9047;53.486;10.218;2022-12-07T05:41:18;2.10;99.90
17845;DHT22;9047;53.486;10.218;2022-12-07T05:44:06;2.10;99.90
17845;DHT22;9047;53.486;10.218;2022-12-07T05:46:34;2.00;99.90
17845;DHT22;9047;53.486;10.218;2022-12-07T05:49:01;2.00;99.90
17845;DHT22;9047;53.486;10.218;2022-12-07T05:51:28;1.90;99.90
17845;DHT22;9047;53.486;10.218;2022-12-07T05:53:55;1.90;99.90
17845;DHT22;9047;53.486;10.218;2022-12-07T05:56:22;1.80;99.90
17845;DHT22;9047;53.486;10.218;2022-12-07T05:58:49;1.80;99.90
17845;DHT22;9047;53.486;10.218;2022-12-07T06:01:35;1.80;99.90
17845;DHT22;9047;53.486;10.218;2022-12-07T06:04:03;1.80;99.90
17845;DHT22;9047;53.486;10.218;2022-12-07T06:06:34;1.80;99.90
17845;DHT22;9047;53.486;10.218;2022-12-07T06:09:01;1.80;99.90
17845;DHT22;9047;53.486;10.218;2022-12-07T06:11:28;1.80;99.90
17845;DHT22;9047;53.486;10.218;2022-12-07T06:14:12;1.80;99.90
17845;DHT22;9047;53.486;10.218;2022-12-07T06:16:41;1.80;99.90
17845;DHT22;9047;53.486;10.218;2022-12-07T06:19:08;1.80;99.90
17845;DHT22;9047;53.486;10.218;2022-12-07T06:21:36;1.70;99.90
17845;DHT22;9047;53.486;10.218;2022-12-07T06:24:04;1.70;99.90
17845;DHT22;9047;53.486;10.218;2022-12-07T06:26:33;1.60;99.90
17845;DHT22;9047;53.486;10.218;2022-12-07T06:29:00;1.60;99.90
17845;DHT22;9047;53.486;10.218;2022-12-07T06:31:27;1.50;99.90
17845;DHT22;9047;53.486;10.218;2022-12-07T06:33:58;1.60;99.90
17845;DHT22;9047;53.486;10.218;2022-12-07T06:36:25;1.60;99.90
17845;DHT22;9047;53.486;10.218;2022-12-07T06:38:52;1.60;99.90
17845;DHT22;9047;53.486;10.218;2022-12-07T06:41:19;1.60;99.90
17845;DHT22;9047;53.486;10.218;2022-12-07T06:43:46;1.60;99.90
17845;DHT22;9047;53.486;10.218;2022-12-07T06:46:16;1.60;99.90
17845;DHT22;9047;53.486;10.218;2022-12-07T06:48:49;1.60;99.90
17845;DHT22;9047;53.486;10.218;2022-12-07T06:51:17;1.50;99.90
17845;DHT22;9047;53.486;10.218;2022-12-07T06:53:44;1.50;99.90
17845;DHT22;9047;53.486;10.218;2022-12-07T06:56:15;1.50;99.90
17845;DHT22;9047;53.486;10.218;2022-12-07T06:58:44;1.50;99.90
17845;DHT22;9047;53.486;10.218;2022-12-07T07:01:13;1.50;99.90
17845;DHT22;9047;53.486;10.218;2022-12-07T07:03:40;1.50;99.90
17845;DHT22;9047;53.486;10.218;2022-12-07T07:06:10;1.60;99.90
17845;DHT22;9047;53.486;10.218;2022-12-07T07:08:39;1.60;99.90
17845;DHT22;9047;53.486;10.218;2022-12-07T07:11:09;1.60;99.90
17845;DHT22;9047;53.486;10.218;2022-12-07T07:13:36;1.60;99.90
17845;DHT22;9047;53.486;10.218;2022-12-07T07:16:04;1.60;99.90
17845;DHT22;9047;53.486;10.218;2022-12-07T07:18:31;1.70;99.90
17845;DHT22;9047;53.486;10.218;2022-12-07T07:20:58;1.70;99.90
17845;DHT22;9047;53.486;10.218;2022-12-07T07:23:24;1.70;99.90
17845;DHT22;9047;53.486;10.218;2022-12-07T07:25:53;1.90;99.90
17845;DHT22;9047;53.486;10.218;2022-12-07T07:28:20;1.80;99.90
17845;DHT22;9047;53.486;10.218;2022-12-07T07:30:47;1.80;99.90
17845;DHT22;9047;53.486;10.218;2022-12-07T07:33:14;1.90;99.90
17845;DHT22;9047;53.486;10.218;2022-12-07T07:35:40;1.90;99.90
17845;DHT22;9047;53.486;10.218;2022-12-07T07:38:08;2.00;99.90
17845;DHT22;9047;53.486;10.218;2022-12-07T07:40:35;1.90;99.90
17845;DHT22;9047;53.486;10.218;2022-12-07T07:43:03;2.00;99.90
17845;DHT22;9047;53.486;10.218;2022-12-07T07:45:30;2.00;99.90
17845;DHT22;9047;53.486;10.218;2022-12-07T07:47:57;2.00;99.90
17845;DHT22;9047;53.486;10.218;2022-12-07T07:50:23;2.10;99.90
17845;DHT22;9047;53.486;10.218;2022-12-07T07:52:51;2.10;99.90
17845;DHT22;9047;53.486;10.218;2022-12-07T07:55:18;2.20;99.90
17845;DHT22;9047;53.486;10.218;2022-12-07T07:57:45;2.20;99.90
17845;DHT22;9047;53.486;10.218;2022-12-07T08:00:15;2.20;99.90
17845;DHT22;9047;53.486;10.218;2022-12-07T08:02:43;2.30;99.90
17845;DHT22;9047;53.486;10.218;2022-12-07T08:05:10;2.30;99.90
17845;DHT22;9047;53.486;10.218;2022-12-07T08:07:37;2.40;99.90
17845;DHT22;9047;53.486;10.218;2022-12-07T08:10:06;2.50;99.90
17845;DHT22;9047;53.486;10.218;2022-12-07T08:12:36;2.50;99.90
17845;DHT22;9047;53.486;10.218;2022-12-07T08:15:25;2.60;99.90
17845;DHT22;9047;53.486;10.218;2022-12-07T08:17:52;2.60;99.90
17845;DHT22;9047;53.486;10.218;2022-12-07T08:20:19;2.70;99.90
17845;DHT22;9047;53.486;10.218;2022-12-07T08:22:46;2.80;99.90
17845;DHT22;9047;53.486;10.218;2022-12-07T08:25:13;2.80;99.90
17845;DHT22;9047;53.486;10.218;2022-12-07T08:27:40;2.90;99.90
17845;DHT22;9047;53.486;10.218;2022-12-07T08:30:07;2.90;99.90
17845;DHT22;9047;53.486;10.218;2022-12-07T08:32:38;3.00;99.90
17845;DHT22;9047;53.486;10.218;2022-12-07T08:35:06;3.00;99.90
17845;DHT22;9047;53.486;10.218;2022-12-07T08:37:33;3.00;99.90
17845;DHT22;9047;53.486;10.218;2022-12-07T08:40:00;3.10;99.90
17845;DHT22;9047;53.486;10.218;2022-12-07T08:42:26;3.10;99.90
17845;DHT22;9047;53.486;10.218;2022-12-07T08:44:55;3.20;99.90
17845;DHT22;9047;53.486;10.218;2022-12-07T08:47:23;3.20;99.90
17845;DHT22;9047;53.486;10.218;2022-12-07T08:49:55;3.30;99.90
17845;DHT22;9047;53.486;10.218;2022-12-07T08:52:22;3.40;99.90
17845;DHT22;9047;53.486;10.218;2022-12-07T08:54:49;3.40;99.90
17845;DHT22;9047;53.486;10.218;2022-12-07T08:57:16;3.50;99.90
17845;DHT22;9047;53.486;10.218;2022-12-07T08:59:43;3.50;99.90
17845;DHT22;9047;53.486;10.218;2022-12-07T09:02:10;3.60;99.90
17845;DHT22;9047;53.486;10.218;2022-12-07T09:04:36;3.60;99.90
17845;DHT22;9047;53.486;10.218;2022-12-07T09:07:05;3.70;99.90
17845;DHT22;9047;53.486;10.218;2022-12-07T09:09:32;3.80;99.90
17845;DHT22;9047;53.486;10.218;2022-12-07T09:11:58;3.90;99.90
17845;DHT22;9047;53.486;10.218;2022-12-07T09:14:25;3.90;99.90
17845;DHT22;9047;53.486;10.218;2022-12-07T09:16:52;4.00;99.90
17845;DHT22;9047;53.486;10.218;2022-12-07T09:19:19;4.10;99.90
17845;DHT22;9047;53.486;10.218;2022-12-07T09:21:46;4.20;99.90
17845;DHT22;9047;53.486;10.218;2022-12-07T09:24:14;4.30;99.90
17845;DHT22;9047;53.486;10.218;2022-12-07T09:26:41;4.40;99.90
17845;DHT22;9047;53.486;10.218;2022-12-07T09:29:08;4.50;99.90
17845;DHT22;9047;53.486;10.218;2022-12-07T09:31:36;4.60;99.90
17845;DHT22;9047;53.486;10.218;2022-12-07T09:34:03;4.60;99.90
17845;DHT22;9047;53.486;10.218;2022-12-07T09:36:31;4.70;99.90
17845;DHT22;9047;53.486;10.218;2022-12-07T09:38:58;4.80;99.90
17845;DHT22;9047;53.486;10.218;2022-12-07T09:41:27;4.90;99.90
17845;DHT22;9047;53.486;10.218;2022-12-07T09:44:09;5.00;99.90
17845;DHT22;9047;53.486;10.218;2022-12-07T09:46:39;5.00;99.90
17845;DHT22;9047;53.486;10.218;2022-12-07T09:49:11;5.10;99.90
17845;DHT22;9047;53.486;10.218;2022-12-07T09:51:38;5.20;99.90
17845;DHT22;9047;53.486;10.218;2022-12-07T09:54:05;5.20;99.90
17845;DHT22;9047;53.486;10.218;2022-12-07T09:56:33;5.40;99.90
17845;DHT22;9047;53.486;10.218;2022-12-07T09:59:01;5.50;99.90
17845;DHT22;9047;53.486;10.218;2022-12-07T10:01:30;5.60;99.90
17845;DHT22;9047;53.486;10.218;2022-12-07T10:04:05;5.60;99.90
17845;DHT22;9047;53.486;10.218;2022-12-07T10:06:32;5.60;99.90
17845;DHT22;9047;53.486;10.218;2022-12-07T10:08:59;5.60;99.90
17845;DHT22;9047;53.486;10.218;2022-12-07T10:11:26;5.60;99.90
17845;DHT22;9047;53.486;10.218;2022-12-07T10:13:54;5.60;99.90
17845;DHT22;9047;53.486;10.218;2022-12-07T10:16:38;5.50;99.90
17845;DHT22;9047;53.486;10.218;2022-12-07T10:19:24;5.50;99.90
17845;DHT22;9047;53.486;10.218;2022-12-07T10:22:08;5.50;99.90
17845;DHT22;9047;53.486;10.218;2022-12-07T10:24:36;5.50;99.90
17845;DHT22;9047;53.486;10.218;2022-12-07T10:27:18;5.60;99.90
17845;DHT22;9047;53.486;10.218;2022-12-07T10:29:50;5.60;99.90
17845;DHT22;9047;53.486;10.218;2022-12-07T10:32:32;5.70;99.90
17845;DHT22;9047;53.486;10.218;2022-12-07T10:35:21;5.70;99.90
17845;DHT22;9047;53.486;10.218;2022-12-07T10:37:49;5.80;99.90
17845;DHT22;9047;53.486;10.218;2022-12-07T10:40:34;5.80;99.90
17845;DHT22;9047;53.486;10.218;2022-12-07T10:43:16;5.90;99.90
17845;DHT22;9047;53.486;10.218;2022-12-07T10:48:51;5.80;99.90
17845;DHT22;9047;53.486;10.218;2022-12-07T10:51:29;5.80;99.90
17845;DHT22;9047;53.486;10.218;2022-12-07T10:54:09;5.70;99.90
17845;DHT22;9047;53.486;10.218;2022-12-07T10:57:02;5.70;99.90
17845;DHT22;9047;53.486;10.218;2022-12-07T10:59:53;5.70;99.90
17845;DHT22;9047;53.486;10.218;2022-12-07T11:02:37;5.70;99.90
17845;DHT22;9047;53.486;10.218;2022-12-07T11:05:18;5.70;99.90
17845;DHT22;9047;53.486;10.218;2022-12-07T11:07:58;5.70;99.90
17845;DHT22;9047;53.486;10.218;2022-12-07T11:10:33;5.80;99.90
17845;DHT22;9047;53.486;10.218;2022-12-07T11:13:18;5.90;99.90
17845;DHT22;9047;53.486;10.218;2022-12-07T11:16:05;5.90;99.90
17845;DHT22;9047;53.486;10.218;2022-12-07T11:18:46;5.90;99.90
17845;DHT22;9047;53.486;10.218;2022-12-07T11:21:24;5.90;99.90
17845;DHT22;9047;53.486;10.218;2022-12-07T11:23:59;5.90;99.90
17845;DHT22;9047;53.486;10.218;2022-12-07T11:26:42;5.90;99.90
17845;DHT22;9047;53.486;10.218;2022-12-07T11:29:35;5.80;99.90
17845;DHT22;9047;53.486;10.218;2022-12-07T11:32:13;5.80;99.90
17845;DHT22;9047;53.486;10.218;2022-12-07T11:34:49;5.70;99.90
17845;DHT22;9047;53.486;10.218;2022-12-07T11:37:21;5.70;99.90
17845;DHT22;9047;53.486;10.218;2022-12-07T11:39:52;5.60;99.90
17845;DHT22;9047;53.486;10.218;2022-12-07T11:42:23;5.70;99.90
17845;DHT22;9047;53.486;10.218;2022-12-07T11:44:56;5.70;99.90
17845;DHT22;9047;53.486;10.218;2022-12-07T11:47:34;5.60;99.90
17845;DHT22;9047;53.486;10.218;2022-12-07T11:50:22;5.60;99.90
17845;DHT22;9047;53.486;10.218;2022-12-07T11:52:54;5.70;99.90
17845;DHT22;9047;53.486;10.218;2022-12-07T11:55:27;5.70;99.90
17845;DHT22;9047;53.486;10.218;2022-12-07T11:58:01;5.70;99.90
17845;DHT22;9047;53.486;10.218;2022-12-07T12:00:29;5.70;99.90
17845;DHT22;9047;53.486;10.218;2022-12-07T12:02:59;5.60;99.90
17845;DHT22;9047;53.486;10.218;2022-12-07T12:05:30;5.60;99.90
17845;DHT22;9047;53.486;10.218;2022-12-07T12:08:04;5.60;99.90
17845;DHT22;9047;53.486;10.218;2022-12-07T12:10:45;5.60;99.90
17845;DHT22;9047;53.486;10.218;2022-12-07T12:13:34;5.60;99.90
17845;DHT22;9047;53.486;10.218;2022-12-07T12:16:19;5.60;99.90
17845;DHT22;9047;53.486;10.218;2022-12-07T12:18:56;5.50;99.90
17845;DHT22;9047;53.486;10.218;2022-12-07T12:21:30;5.50;99.90
17845;DHT22;9047;53.486;10.218;2022-12-07T12:24:00;5.40;99.90
17845;DHT22;9047;53.486;10.218;2022-12-07T12:26:30;5.40;99.90
17845;DHT22;9047;53.486;10.218;2022-12-07T12:28:59;5.40;99.90
17845;DHT22;9047;53.486;10.218;2022-12-07T12:31:33;5.40;99.90
17845;DHT22;9047;53.486;10.218;2022-12-07T12:34:04;5.40;99.90
17845;DHT22;9047;53.486;10.218;2022-12-07T12:36:52;5.30;99.90
17845;DHT22;9047;53.486;10.218;2022-12-07T12:39:20;5.30;99.90
17845;DHT22;9047;53.486;10.218;2022-12-07T12:41:54;5.30;99.90
17845;DHT22;9047;53.486;10.218;2022-12-07T12:47:54;5.50;99.90
17845;DHT22;9047;53.486;10.218;2022-12-07T12:50:23;5.60;99.90
17845;DHT22;9047;53.486;10.218;2022-12-07T12:53:21;5.70;99.90
17845;DHT22;9047;53.486;10.218;2022-12-07T12:56:26;5.90;99.90
17845;DHT22;9047;53.486;10.218;2022-12-07T12:59:21;6.10;99.90
17845;DHT22;9047;53.486;10.218;2022-12-07T13:01:49;6.10;99.90
17845;DHT22;9047;53.486;10.218;2022-12-07T13:04:49;6.20;99.90
17845;DHT22;9047;53.486;10.218;2022-12-07T13:07:53;6.10;99.90
17845;DHT22;9047;53.486;10.218;2022-12-07T13:10:44;6.10;99.90
17845;DHT22;9047;53.486;10.218;2022-12-07T13:13:34;6.00;99.90
17845;DHT22;9047;53.486;10.218;2022-12-07T13:19:53;5.90;99.90
17845;DHT22;9047;53.486;10.218;2022-12-07T13:22:50;5.90;99.90
17845;DHT22;9047;53.486;10.218;2022-12-07T13:25:30;5.90;99.90
17845;DHT22;9047;53.486;10.218;2022-12-07T13:28:09;5.80;99.90
17845;DHT22;9047;53.486;10.218;2022-12-07T13:30:45;5.80;99.90
17845;DHT22;9047;53.486;10.218;2022-12-07T13:33:15;5.80;99.90
17845;DHT22;9047;53.486;10.218;2022-12-07T13:35:45;5.70;99.90
17845;DHT22;9047;53.486;10.218;2022-12-07T13:38:22;5.80;99.90
17845;DHT22;9047;53.486;10.218;2022-12-07T13:41:12;5.70;99.90
17845;DHT22;9047;53.486;10.218;2022-12-07T13:43:45;5.70;99.90
17845;DHT22;9047;53.486;10.218;2022-12-07T13:46:12;5.70;99.90
17845;DHT22;9047;53.486;10.218;2022-12-07T13:48:44;5.60;99.90
17845;DHT22;9047;53.486;10.218;2022-12-07T13:51:18;5.60;99.90
17845;DHT22;9047;53.486;10.218;2022-12-07T13:53:48;5.60;99.90
17845;DHT22;9047;53.486;10.218;2022-12-07T13:56:16;5.60;99.90
17845;DHT22;9047;53.486;10.218;2022-12-07T13:58:45;5.50;99.90
17845;DHT22;9047;53.486;10.218;2022-12-07T14:01:12;5.50;99.90
17845;DHT22;9047;53.486;10.218;2022-12-07T14:03:40;5.40;99.90
17845;DHT22;9047;53.486;10.218;2022-12-07T14:06:16;5.40;99.90
17845;DHT22;9047;53.486;10.218;2022-12-07T14:08:44;5.30;99.90
17845;DHT22;9047;53.486;10.218;2022-12-07T14:11:18;5.30;99.90
17845;DHT22;9047;53.486;10.218;2022-12-07T14:13:57;5.20;99.90
17845;DHT22;9047;53.486;10.218;2022-12-07T14:16:27;5.20;99.90
17845;DHT22;9047;53.486;10.218;2022-12-07T14:18:56;5.20;99.90
17845;DHT22;9047;53.486;10.218;2022-12-07T14:21:25;5.10;99.90
17845;DHT22;9047;53.486;10.218;2022-12-07T14:24:12;5.10;99.90
17845;DHT22;9047;53.486;10.218;2022-12-07T14:26:40;5.00;99.90
17845;DHT22;9047;53.486;10.218;2022-12-07T14:29:29;5.00;99.90
17845;DHT22;9047;53.486;10.218;2022-12-07T14:31:59;4.90;99.90
17845;DHT22;9047;53.486;10.218;2022-12-07T14:34:32;4.80;99.90
17845;DHT22;9047;53.486;10.218;2022-12-07T14:37:00;4.70;99.90
17845;DHT22;9047;53.486;10.218;2022-12-07T14:39:28;4.60;99.90
17845;DHT22;9047;53.486;10.218;2022-12-07T14:41:56;4.50;99.90
17845;DHT22;9047;53.486;10.218;2022-12-07T14:44:24;4.40;99.90
17845;DHT22;9047;53.486;10.218;2022-12-07T14:46:52;4.30;99.90
17845;DHT22;9047;53.486;10.218;2022-12-07T14:49:20;4.20;99.90
17845;DHT22;9047;53.486;10.218;2022-12-07T14:51:47;4.10;99.90
17845;DHT22;9047;53.486;10.218;2022-12-07T14:54:18;4.00;99.90
17845;DHT22;9047;53.486;10.218;2022-12-07T14:56:46;3.90;99.90
17845;DHT22;9047;53.486;10.218;2022-12-07T14:59:15;3.80;99.90
17845;DHT22;9047;53.486;10.218;2022-12-07T15:01:43;3.70;99.90
17845;DHT22;9047;53.486;10.218;2022-12-07T15:04:10;3.60;99.90
17845;DHT22;9047;53.486;10.218;2022-12-07T15:06:38;3.50;99.90
17845;DHT22;9047;53.486;10.218;2022-12-07T15:09:05;3.50;99.90
17845;DHT22;9047;53.486;10.218;2022-12-07T15:11:32;3.40;99.90
17845;DHT22;9047;53.486;10.218;2022-12-07T15:14:01;3.40;99.90
17845;DHT22;9047;53.486;10.218;2022-12-07T15:16:41;3.30;99.90
17845;DHT22;9047;53.486;10.218;2022-12-07T15:19:15;3.30;99.90
17845;DHT22;9047;53.486;10.218;2022-12-07T15:21:42;3.20;99.90
17845;DHT22;9047;53.486;10.218;2022-12-07T15:24:10;3.10;99.90
17845;DHT22;9047;53.486;10.218;2022-12-07T15:26:38;3.10;99.90
17845;DHT22;9047;53.486;10.218;2022-12-07T15:29:06;3.10;99.90
17845;DHT22;9047;53.486;10.218;2022-12-07T15:31:35;3.10;99.90
17845;DHT22;9047;53.486;10.218;2022-12-07T15:34:03;3.10;99.90
17845;DHT22;9047;53.486;10.218;2022-12-07T15:36:33;3.10;99.90
17845;DHT22;9047;53.486;10.218;2022-12-07T15:39:01;3.20;99.90
17845;DHT22;9047;53.486;10.218;2022-12-07T15:41:28;3.10;99.90
17845;DHT22;9047;53.486;10.218;2022-12-07T15:43:55;3.00;99.90
17845;DHT22;9047;53.486;10.218;2022-12-07T15:46:40;3.00;99.90
17845;DHT22;9047;53.486;10.218;2022-12-07T15:49:11;2.90;99.90
17845;DHT22;9047;53.486;10.218;2022-12-07T15:51:40;2.90;99.90
17845;DHT22;9047;53.486;10.218;2022-12-07T15:54:12;2.90;99.90
17845;DHT22;9047;53.486;10.218;2022-12-07T15:56:39;2.80;99.90
17845;DHT22;9047;53.486;10.218;2022-12-07T15:59:06;2.70;99.90
17845;DHT22;9047;53.486;10.218;2022-12-07T16:01:33;2.70;99.90
17845;DHT22;9047;53.486;10.218;2022-12-07T16:04:00;2.60;99.90
17845;DHT22;9047;53.486;10.218;2022-12-07T16:06:27;2.50;99.90
17845;DHT22;9047;53.486;10.218;2022-12-07T16:08:55;2.50;99.90
17845;DHT22;9047;53.486;10.218;2022-12-07T16:11:22;2.50;99.90
17845;DHT22;9047;53.486;10.218;2022-12-07T16:13:49;2.50;99.90
17845;DHT22;9047;53.486;10.218;2022-12-07T16:16:18;2.50;99.90
17845;DHT22;9047;53.486;10.218;2022-12-07T16:18:46;2.50;99.90
17845;DHT22;9047;53.486;10.218;2022-12-07T16:21:13;2.50;99.90
17845;DHT22;9047;53.486;10.218;2022-12-07T16:23:40;2.40;99.90
17845;DHT22;9047;53.486;10.218;2022-12-07T16:26:11;2.40;99.90